createdAt,value
2022-08-12T00:00:40.959Z,2.43
2022-08-12T00:03:28.198Z,2.40
2022-08-12T00:06:22.132Z,2.30
2022-08-12T00:09:32.408Z,2.50
2022-08-12T00:12:24.964Z,2.40
2022-08-12T00:15:10.379Z,2.33
2022-08-12T00:18:04.096Z,2.50
2022-08-12T00:20:49.541Z,2.60
2022-08-12T00:23:43.010Z,2.77
2022-08-12T00:26:32.439Z,2.70
2022-08-12T00:29:25.010Z,2.43
2022-08-12T00:32:12.368Z,2.60
2022-08-12T00:35:23.571Z,2.80
2022-08-12T00:38:22.125Z,2.80
2022-08-12T00:41:08.740Z,2.60
2022-08-12T00:43:45.102Z,2.80
2022-08-12T00:46:31.108Z,2.67
2022-08-12T00:49:06.091Z,2.73
2022-08-12T00:51:48.360Z,2.43
2022-08-12T00:54:24.083Z,2.67
2022-08-12T00:56:55.222Z,2.80
2022-08-12T00:59:32.346Z,2.80
2022-08-12T01:02:11.074Z,2.90
2022-08-12T01:05:06.328Z,2.83
2022-08-12T01:07:54.760Z,2.80
2022-08-12T01:10:57.440Z,3.00
2022-08-12T01:13:26.924Z,2.87
2022-08-12T01:16:05.022Z,2.77
2022-08-12T01:18:35.502Z,3.00
2022-08-12T01:21:19.548Z,2.90
2022-08-12T01:24:30.117Z,2.70
2022-08-12T01:27:10.148Z,2.80
2022-08-12T01:29:47.463Z,3.20
2022-08-12T01:32:24.136Z,2.67
2022-08-12T01:34:58.918Z,3.17
2022-08-12T01:37:35.055Z,2.63
2022-08-12T01:40:34.980Z,2.83
2022-08-12T01:43:09.170Z,3.00
2022-08-12T01:45:57.526Z,3.00
2022-08-12T01:48:40.209Z,3.27
2022-08-12T01:52:15.507Z,3.10
2022-08-12T01:54:21.082Z,3.10
2022-08-12T01:56:53.811Z,2.80
2022-08-12T01:59:57.153Z,2.83
2022-08-12T02:02:33.743Z,2.90
2022-08-12T02:05:43.188Z,2.83
2022-08-12T02:08:52.293Z,3.10
2022-08-12T02:11:36.456Z,2.83
2022-08-12T02:14:26.250Z,2.90
2022-08-12T02:17:56.392Z,2.80
2022-08-12T02:20:35.501Z,2.93
2022-08-12T02:23:27.292Z,2.90
2022-08-12T02:26:01.898Z,2.87
2022-08-12T02:28:39.218Z,3.10
2022-08-12T02:31:09.323Z,2.93
2022-08-12T02:33:48.113Z,3.33
2022-08-12T02:36:26.096Z,3.40
2022-08-12T02:38:56.678Z,3.37
2022-08-12T02:41:34.216Z,3.30
2022-08-12T02:44:11.513Z,3.17
2022-08-12T02:46:50.137Z,2.97
2022-08-12T02:49:26.599Z,3.20
2022-08-12T02:52:01.123Z,2.77
2022-08-12T02:54:29.930Z,3.30
2022-08-12T02:57:06.419Z,3.10
2022-08-12T02:59:35.855Z,3.37
2022-08-12T03:02:13.224Z,3.20
2022-08-12T03:04:51.146Z,3.50
2022-08-12T03:07:33.562Z,3.20
2022-08-12T03:10:37.194Z,3.37
2022-08-12T03:13:15.228Z,3.27
2022-08-12T03:15:44.346Z,3.90
2022-08-12T03:18:28.785Z,3.60
2022-08-12T03:20:59.856Z,3.63
2022-08-12T03:23:36.238Z,3.80
2022-08-12T03:26:05.772Z,3.77
2022-08-12T03:29:03.469Z,4.13
2022-08-12T03:31:33.889Z,4.00
2022-08-12T03:34:11.177Z,3.67
2022-08-12T03:36:43.360Z,3.80
2022-08-12T03:39:35.870Z,3.50
2022-08-12T03:42:22.241Z,3.83
2022-08-12T03:45:22.169Z,3.80
2022-08-12T03:48:19.181Z,3.93
2022-08-12T03:51:13.181Z,3.80
2022-08-12T03:54:01.648Z,3.90
2022-08-12T03:56:55.274Z,4.00
2022-08-12T03:59:40.879Z,3.60
2022-08-12T04:02:15.270Z,3.90
2022-08-12T04:04:45.760Z,3.70
2022-08-12T04:07:23.501Z,3.70
2022-08-12T04:10:00.010Z,4.00
2022-08-12T04:12:53.195Z,3.80
2022-08-12T04:15:26.181Z,4.10
2022-08-12T04:18:06.392Z,4.50
2022-08-12T04:23:26.225Z,4.10
2022-08-12T04:25:56.211Z,4.40
2022-08-12T04:28:36.320Z,4.10
2022-08-12T04:31:05.161Z,4.47
2022-08-12T04:33:40.215Z,4.33
2022-08-12T04:36:09.765Z,4.50
2022-08-12T04:38:45.180Z,4.00
2022-08-12T04:41:15.969Z,4.37
2022-08-12T04:43:59.747Z,4.57
2022-08-12T04:46:30.868Z,4.37
2022-08-12T04:49:10.242Z,4.37
2022-08-12T04:51:42.198Z,4.57
2022-08-12T04:54:29.761Z,4.63
2022-08-12T04:57:04.055Z,4.40
2022-08-12T04:59:47.689Z,4.10
2022-08-12T05:02:20.461Z,4.50
2022-08-12T05:05:01.022Z,4.50
2022-08-12T05:07:30.243Z,4.40
2022-08-12T05:10:12.264Z,4.40
2022-08-12T05:12:56.454Z,4.67
2022-08-12T05:15:31.239Z,5.30
2022-08-12T05:17:59.697Z,4.40
2022-08-12T05:20:35.356Z,5.10
2022-08-12T05:23:16.277Z,5.23
2022-08-12T05:25:53.340Z,4.43
2022-08-12T05:28:24.202Z,5.70
2022-08-12T05:30:59.261Z,4.77
2022-08-12T05:33:33.317Z,4.20
2022-08-12T05:36:08.309Z,4.60
2022-08-12T05:38:54.544Z,4.63
2022-08-12T05:41:29.411Z,4.47
2022-08-12T05:44:01.006Z,5.30
2022-08-12T05:46:37.279Z,4.47
2022-08-12T05:49:06.417Z,4.60
2022-08-12T05:51:43.300Z,4.70
2022-08-12T05:54:12.691Z,4.77
2022-08-12T05:56:48.419Z,4.50
2022-08-12T05:59:18.415Z,4.20
2022-08-12T06:02:08.853Z,4.90
2022-08-12T06:04:42.145Z,4.30
2022-08-12T06:08:00.476Z,4.50
2022-08-12T06:10:15.323Z,4.10
2022-08-12T06:12:56.401Z,4.20
2022-08-12T06:15:26.689Z,4.13
2022-08-12T06:18:02.324Z,4.23
2022-08-12T06:20:34.404Z,4.30
2022-08-12T06:23:10.424Z,4.40
2022-08-12T06:25:39.175Z,4.50
2022-08-12T06:28:23.342Z,4.23
2022-08-12T06:33:56.052Z,4.43
2022-08-12T06:36:47.399Z,4.30
2022-08-12T06:39:20.162Z,3.90
2022-08-12T06:42:31.668Z,4.50
2022-08-12T06:45:02.599Z,3.90
2022-08-12T06:47:43.375Z,3.90
2022-08-12T06:50:16.501Z,3.93
2022-08-12T06:52:51.335Z,3.97
2022-08-12T06:55:25.530Z,3.63
2022-08-12T06:58:09.868Z,4.07
2022-08-12T07:00:39.790Z,3.80
2022-08-12T07:03:23.271Z,3.80
2022-08-12T07:05:52.428Z,3.27
2022-08-12T07:08:27.486Z,3.57
2022-08-12T07:11:04.386Z,3.40
2022-08-12T07:14:11.506Z,3.37
2022-08-12T07:16:47.431Z,3.30
2022-08-12T07:19:24.528Z,3.37
2022-08-12T07:22:13.646Z,3.10
2022-08-12T07:24:48.495Z,3.10
2022-08-12T07:27:17.511Z,3.10
2022-08-12T07:30:03.602Z,3.23
2022-08-12T07:32:36.197Z,3.20
2022-08-12T07:35:15.864Z,3.10
2022-08-12T07:37:45.730Z,3.50
2022-08-12T07:40:21.502Z,3.00
2022-08-12T07:42:52.200Z,3.10
2022-08-12T07:45:28.606Z,3.00
2022-08-12T07:47:57.601Z,5.77
2022-08-12T07:50:34.642Z,3.20
2022-08-12T07:53:04.489Z,3.10
2022-08-12T07:55:40.518Z,2.93
2022-08-12T07:58:09.089Z,2.80
2022-08-12T08:00:46.581Z,2.63
2022-08-12T08:03:17.178Z,2.60
2022-08-12T08:05:54.554Z,2.80
2022-08-12T08:08:26.153Z,2.90
2022-08-12T08:11:27.761Z,2.90
2022-08-12T08:13:56.097Z,2.63
2022-08-12T08:16:32.022Z,3.07
2022-08-12T08:19:00.977Z,3.17
2022-08-12T08:21:41.546Z,2.70
2022-08-12T08:24:15.946Z,2.60
2022-08-12T08:26:54.751Z,2.95
2022-08-12T08:29:23.968Z,3.53
2022-08-12T08:32:02.468Z,2.70
2022-08-12T08:34:53.023Z,2.90
2022-08-12T08:37:32.973Z,2.38
2022-08-12T08:40:23.723Z,3.03
2022-08-12T08:42:57.451Z,2.58
2022-08-12T08:45:25.810Z,2.25
2022-08-12T08:48:01.564Z,2.40
2022-08-12T08:50:30.226Z,3.33
2022-08-12T08:53:06.502Z,2.53
2022-08-12T08:56:03.165Z,1.92
2022-08-12T08:58:30.575Z,2.60
2022-08-12T09:00:59.998Z,2.30
2022-08-12T09:05:09.144Z,2.38
2022-08-12T09:06:37.166Z,2.28
2022-08-12T09:09:14.829Z,2.22
2022-08-12T09:12:11.729Z,2.00
2022-08-12T09:17:52.261Z,2.13
2022-08-12T09:20:29.417Z,2.38
2022-08-12T09:22:59.080Z,2.30
2022-08-12T09:25:38.499Z,2.50
2022-08-12T09:28:11.431Z,2.13
2022-08-12T09:30:52.608Z,1.95
2022-08-12T09:34:27.728Z,1.85
2022-08-12T09:36:31.339Z,2.05
2022-08-12T09:40:01.622Z,2.00
2022-08-12T09:42:38.693Z,2.10
2022-08-12T09:46:06.219Z,2.08
2022-08-12T09:48:23.817Z,1.83
2022-08-12T09:51:01.573Z,2.50
2022-08-12T09:53:39.641Z,2.10
2022-08-12T09:57:02.777Z,1.80
2022-08-12T09:59:09.625Z,1.77
2022-08-12T10:02:44.263Z,1.88
2022-08-12T10:04:34.756Z,2.00
2022-08-12T10:07:20.400Z,1.85
2022-08-12T10:10:00.498Z,1.50
2022-08-12T10:13:14.333Z,1.70
2022-08-12T10:16:00.796Z,2.47
2022-08-12T10:18:35.170Z,1.80
2022-08-12T10:21:18.873Z,2.70
2022-08-12T10:24:14.897Z,1.92
2022-08-12T10:27:14.203Z,3.85
2022-08-12T10:30:37.780Z,2.00
2022-08-12T10:32:44.511Z,1.83
2022-08-12T10:35:16.210Z,1.98
2022-08-12T10:38:34.681Z,2.22
2022-08-12T10:41:03.923Z,1.90
2022-08-12T10:43:55.203Z,2.00
2022-08-12T10:46:31.148Z,1.85
2022-08-12T10:50:03.079Z,1.95
2022-08-12T10:52:32.321Z,1.80
2022-08-12T10:54:57.669Z,1.70
2022-08-12T10:58:14.637Z,2.03
2022-08-12T11:00:33.666Z,2.15
2022-08-12T11:04:23.265Z,2.05
2022-08-12T11:07:09.011Z,1.98
2022-08-12T11:09:13.761Z,1.60
2022-08-12T11:12:36.793Z,2.30
2022-08-12T11:14:48.432Z,1.80
2022-08-12T11:17:43.847Z,2.00
2022-08-12T11:20:16.427Z,1.60
2022-08-12T11:23:24.645Z,1.65
2022-08-12T11:25:58.104Z,1.80
2022-08-12T11:28:37.159Z,1.60
2022-08-12T11:31:10.143Z,1.98
2022-08-12T11:34:04.920Z,1.52
2022-08-12T11:36:43.989Z,1.98
2022-08-12T11:39:42.365Z,1.67
2022-08-12T11:42:18.724Z,1.83
2022-08-12T11:45:00.734Z,1.70
2022-08-12T11:47:35.929Z,1.80
2022-08-12T11:50:11.892Z,1.73
2022-08-12T11:52:57.186Z,1.73
2022-08-12T11:55:29.648Z,1.42
2022-08-12T11:59:20.479Z,1.73
2022-08-12T12:03:54.691Z,1.70
2022-08-12T12:06:23.257Z,1.73
2022-08-12T12:09:00.608Z,1.65
2022-08-12T12:11:49.545Z,1.60
2022-08-12T12:14:38.173Z,1.40
2022-08-12T12:17:09.241Z,1.88
2022-08-12T12:19:46.336Z,1.60
2022-08-12T12:22:15.760Z,1.90
2022-08-12T12:24:58.962Z,2.10
2022-08-12T12:28:03.811Z,1.70
2022-08-12T12:30:41.016Z,1.50
2022-08-12T12:33:23.693Z,1.50
2022-08-12T12:36:18.754Z,1.90
2022-08-12T12:38:47.631Z,1.90
2022-08-12T12:41:22.675Z,1.40
2022-08-12T12:44:26.088Z,1.80
2022-08-12T12:47:28.686Z,1.42
2022-08-12T12:49:57.232Z,1.65
2022-08-12T12:52:32.015Z,1.77
2022-08-12T12:55:01.552Z,1.50
2022-08-12T12:57:59.528Z,1.40
2022-08-12T13:00:28.002Z,1.60
2022-08-12T13:03:03.809Z,1.50
2022-08-12T13:05:42.312Z,2.00
2022-08-12T13:08:35.705Z,2.00
2022-08-12T13:11:24.078Z,1.67
2022-08-12T13:14:28.891Z,1.50
2022-08-12T13:17:03.314Z,1.52
2022-08-12T13:19:46.615Z,1.77
2022-08-12T13:22:23.501Z,1.40
2022-08-12T13:25:01.849Z,1.50
2022-08-12T13:27:36.794Z,1.60
2022-08-12T13:30:17.797Z,1.92
2022-08-12T13:32:56.876Z,1.80
2022-08-12T13:36:05.112Z,1.40
2022-08-12T13:38:34.274Z,1.60
2022-08-12T13:41:11.830Z,1.60
2022-08-12T13:43:46.758Z,1.85
2022-08-12T13:46:18.406Z,1.70
2022-08-12T13:48:54.889Z,1.50
2022-08-12T13:51:24.630Z,1.60
2022-08-12T13:53:59.022Z,1.40
2022-08-12T13:56:40.924Z,1.75
2022-08-12T13:59:09.288Z,1.60
2022-08-12T14:01:45.009Z,1.38
2022-08-12T14:04:15.143Z,1.55
2022-08-12T14:06:52.763Z,1.50
2022-08-12T14:09:21.354Z,1.42
2022-08-12T14:12:02.892Z,1.50
2022-08-12T14:14:35.728Z,1.30
2022-08-12T14:17:19.805Z,1.77
2022-08-12T14:20:07.062Z,1.50
2022-08-12T14:22:49.716Z,1.38
2022-08-12T14:25:19.959Z,1.40
2022-08-12T14:28:03.707Z,1.45
2022-08-12T14:30:34.542Z,1.70
2022-08-12T14:33:11.132Z,1.58
2022-08-12T14:35:44.856Z,1.50
2022-08-12T14:38:26.330Z,1.60
2022-08-12T14:40:57.956Z,1.75
2022-08-12T14:43:59.002Z,1.70
2022-08-12T14:46:24.791Z,1.60
2022-08-12T14:49:11.444Z,1.40
2022-08-12T14:52:44.083Z,1.60
2022-08-12T14:58:00.048Z,1.65
2022-08-12T15:00:52.251Z,1.65
2022-08-12T15:03:52.566Z,1.55
2022-08-12T15:06:44.526Z,1.77
2022-08-12T15:09:29.214Z,1.50
2022-08-12T15:12:04.467Z,1.73
2022-08-12T15:14:37.873Z,1.60
2022-08-12T15:17:38.048Z,1.58
2022-08-12T15:20:31.429Z,1.83
2022-08-12T15:22:56.592Z,1.90
2022-08-12T15:25:40.147Z,1.95
2022-08-12T15:28:21.574Z,2.13
2022-08-12T15:30:59.795Z,1.70
2022-08-12T15:33:37.978Z,1.70
2022-08-12T15:36:36.569Z,2.80
2022-08-12T15:39:17.746Z,5.65
2022-08-12T15:41:49.431Z,1.90
2022-08-12T15:44:38.613Z,1.80
2022-08-12T15:47:10.753Z,2.08
2022-08-12T15:49:59.816Z,1.80
2022-08-12T15:52:30.657Z,1.45
2022-08-12T15:55:11.439Z,1.73
2022-08-12T15:57:52.979Z,1.60
2022-08-12T16:00:32.901Z,1.45
2022-08-12T16:03:05.299Z,1.70
2022-08-12T16:06:17.036Z,1.60
2022-08-12T16:08:36.500Z,1.55
2022-08-12T16:11:14.908Z,1.60
2022-08-12T16:13:45.243Z,1.60
2022-08-12T16:16:26.835Z,1.88
2022-08-12T16:18:59.503Z,1.63
2022-08-12T16:21:52.653Z,1.45
2022-08-12T16:24:22.961Z,1.92
2022-08-12T16:26:59.875Z,1.33
2022-08-12T16:29:52.050Z,1.67
2022-08-12T16:32:31.583Z,1.48
2022-08-12T16:35:00.823Z,1.80
2022-08-12T16:38:24.859Z,1.48
2022-08-12T16:40:28.237Z,1.55
2022-08-12T16:43:04.781Z,1.42
2022-08-12T16:46:08.008Z,1.50
2022-08-12T16:48:42.859Z,1.50
2022-08-12T16:51:12.699Z,1.20
2022-08-12T16:53:50.055Z,1.67
2022-08-12T16:56:18.278Z,1.60
2022-08-12T16:58:54.887Z,1.55
2022-08-12T17:01:24.510Z,1.60
2022-08-12T17:04:13.922Z,1.60
2022-08-12T17:06:43.424Z,1.40
2022-08-12T17:09:20.880Z,1.65
2022-08-12T17:11:50.303Z,1.67
2022-08-12T17:14:25.897Z,1.60
2022-08-12T17:17:18.517Z,1.30
2022-08-12T17:20:29.202Z,1.40
2022-08-12T17:22:56.459Z,1.40
2022-08-12T17:25:32.925Z,1.60
2022-08-12T17:28:02.310Z,1.42
2022-08-12T17:30:38.900Z,1.42
2022-08-12T17:33:16.968Z,1.30
2022-08-12T17:35:52.921Z,1.30
2022-08-12T17:38:21.270Z,1.45
2022-08-12T17:40:58.940Z,1.70
2022-08-12T17:43:54.566Z,1.58
2022-08-12T17:46:33.661Z,1.45
2022-08-12T17:49:06.569Z,1.55
2022-08-12T17:51:50.215Z,1.50
2022-08-12T17:54:19.042Z,1.40
2022-08-12T17:56:54.943Z,1.70
2022-08-12T17:59:47.965Z,1.60
2022-08-12T18:02:29.908Z,1.60
2022-08-12T18:05:10.688Z,1.20
2022-08-12T18:07:39.467Z,1.35
2022-08-12T18:10:15.002Z,1.40
2022-08-12T18:12:51.076Z,1.48
2022-08-12T18:16:04.393Z,1.60
2022-08-12T18:18:31.154Z,1.52
2022-08-12T18:21:10.000Z,1.67
2022-08-12T18:23:50.865Z,1.50
2022-08-12T18:26:30.989Z,1.58
2022-08-12T18:28:59.735Z,1.48
2022-08-12T18:31:44.267Z,1.63
2022-08-12T18:34:28.579Z,1.23
2022-08-12T18:37:24.294Z,1.50
2022-08-12T18:40:14.408Z,2.20
2022-08-12T18:42:54.402Z,1.63
2022-08-12T18:45:31.539Z,1.80
2022-08-12T18:48:22.985Z,1.60
2022-08-12T18:51:04.154Z,1.70
2022-08-12T18:54:06.245Z,1.65
2022-08-12T18:56:33.330Z,1.88
2022-08-12T18:59:10.989Z,1.65
2022-08-12T19:02:21.841Z,1.70
2022-08-12T19:04:37.122Z,1.85
2022-08-12T19:07:08.191Z,1.58
2022-08-12T19:09:57.779Z,1.90
2022-08-12T19:12:55.343Z,1.50
2022-08-12T19:15:32.087Z,1.70
2022-08-12T19:18:16.956Z,1.80
2022-08-12T19:20:52.039Z,1.83
2022-08-12T19:23:21.321Z,1.75
2022-08-12T19:26:00.202Z,1.75
2022-08-12T19:28:35.612Z,1.80
2022-08-12T19:31:57.511Z,1.80
2022-08-12T19:35:33.024Z,1.95
2022-08-12T19:38:03.451Z,1.63
2022-08-12T19:40:31.879Z,1.90
2022-08-12T19:43:17.943Z,1.92
2022-08-12T19:45:57.349Z,1.70
2022-08-12T19:48:27.960Z,1.90
2022-08-12T19:51:09.335Z,2.08
2022-08-12T19:53:57.948Z,1.90
2022-08-12T19:56:34.066Z,1.92
2022-08-12T19:59:22.131Z,1.90
2022-08-12T20:02:02.871Z,1.70
2022-08-12T20:04:32.690Z,1.70
2022-08-12T20:07:07.060Z,1.55
2022-08-12T20:09:39.907Z,1.95
2022-08-12T20:12:19.526Z,1.60
2022-08-12T20:15:00.066Z,1.92
2022-08-12T20:17:50.663Z,1.83
2022-08-12T20:20:21.289Z,1.88
2022-08-12T20:23:08.610Z,2.10
2022-08-12T20:25:52.665Z,1.70
2022-08-12T20:28:32.116Z,1.80
2022-08-12T20:31:09.109Z,1.90
2022-08-12T20:33:55.904Z,1.80
2022-08-12T20:36:41.189Z,1.70
2022-08-12T20:39:34.149Z,1.67
2022-08-12T20:42:12.097Z,1.73
2022-08-12T20:44:42.360Z,2.03
2022-08-12T20:47:20.763Z,1.63
2022-08-12T20:49:55.851Z,1.52
2022-08-12T20:52:37.078Z,1.73
2022-08-12T20:55:15.377Z,1.90
2022-08-12T20:58:02.997Z,1.70
2022-08-12T21:00:33.324Z,1.60
2022-08-12T21:03:23.454Z,1.70
2022-08-12T21:06:13.889Z,1.90
2022-08-12T21:08:49.127Z,1.70
2022-08-12T21:11:22.749Z,1.70
2022-08-12T21:13:59.480Z,1.80
2022-08-12T21:16:35.769Z,1.80
2022-08-12T21:19:22.506Z,1.70
2022-08-12T21:21:54.799Z,1.90
2022-08-12T21:24:34.128Z,2.30
2022-08-12T21:27:04.622Z,1.97
2022-08-12T21:29:50.144Z,1.73
2022-08-12T21:32:40.135Z,1.88
2022-08-12T21:35:18.985Z,1.90
2022-08-12T21:37:53.332Z,1.70
2022-08-12T21:40:37.680Z,1.90
2022-08-12T21:43:16.498Z,1.70
2022-08-12T21:46:00.636Z,1.80
2022-08-12T21:48:29.496Z,1.73
2022-08-12T21:51:22.715Z,1.70
2022-08-12T21:54:07.558Z,1.53
2022-08-12T21:56:37.960Z,2.27
2022-08-12T21:59:14.531Z,1.93
2022-08-12T22:01:48.586Z,1.67
2022-08-12T22:04:42.325Z,1.83
2022-08-12T22:07:19.216Z,1.90
2022-08-12T22:10:05.174Z,1.97
2022-08-12T22:12:34.774Z,1.70
2022-08-12T22:15:21.271Z,1.87
2022-08-12T22:17:57.598Z,2.13
2022-08-12T22:20:33.174Z,1.70
2022-08-12T22:23:07.661Z,2.10
2022-08-12T22:25:56.214Z,1.90
2022-08-12T22:28:41.498Z,2.33
2022-08-12T22:31:19.214Z,1.87
2022-08-12T22:33:54.057Z,1.93
2022-08-12T22:36:33.220Z,1.87
2022-08-12T22:39:02.825Z,1.93
2022-08-12T22:41:56.851Z,2.10
2022-08-12T22:44:52.790Z,1.70
2022-08-12T22:47:54.131Z,1.63
2022-08-12T22:50:27.744Z,2.30
2022-08-12T22:53:21.216Z,1.90
2022-08-12T22:55:59.132Z,1.90
2022-08-12T22:58:43.253Z,2.00
2022-08-12T23:01:21.072Z,2.13
2022-08-12T23:03:56.244Z,2.00
2022-08-12T23:06:27.018Z,2.00
2022-08-12T23:09:03.238Z,2.07
2022-08-12T23:11:33.927Z,1.90
2022-08-12T23:14:14.243Z,1.87
2022-08-12T23:16:51.681Z,2.40
2022-08-12T23:19:45.719Z,2.00
2022-08-12T23:23:05.844Z,2.20
2022-08-12T23:25:19.081Z,1.70
2022-08-12T23:28:29.920Z,2.03
2022-08-12T23:31:04.830Z,1.80
2022-08-12T23:34:00.555Z,1.83
2022-08-12T23:36:39.134Z,2.10
2022-08-12T23:40:13.644Z,1.77
2022-08-12T23:42:18.232Z,2.03
2022-08-12T23:45:00.382Z,1.90
2022-08-12T23:47:32.044Z,2.00
2022-08-12T23:50:16.361Z,1.93
2022-08-12T23:52:46.581Z,2.17
2022-08-12T23:55:24.785Z,2.10
2022-08-12T23:58:21.590Z,1.93
